createdAt,value
2017-06-04T00:00:14.018Z,6.43
2017-06-04T00:11:44.321Z,4.10
2017-06-04T00:14:18.538Z,3.90
2017-06-04T00:16:46.798Z,4.27
2017-06-04T00:19:18.210Z,4.50
2017-06-04T00:21:46.422Z,4.03
2017-06-04T00:24:18.548Z,4.20
2017-06-04T00:26:46.764Z,4.90
2017-06-04T00:29:14.986Z,4.77
2017-06-04T00:31:44.001Z,4.00
2017-06-04T00:34:12.262Z,3.67
2017-06-04T00:39:42.297Z,5.80
2017-06-04T00:42:11.319Z,6.37
2017-06-04T00:51:05.125Z,4.83
2017-06-04T00:53:33.349Z,4.90
2017-06-04T00:56:01.650Z,4.13
2017-06-04T00:58:29.870Z,3.90
2017-06-04T01:01:04.227Z,4.93
2017-06-04T01:03:33.268Z,4.50
2017-06-04T01:06:16.489Z,4.40
2017-06-04T01:11:45.522Z,4.60
2017-06-04T01:14:17.341Z,4.47
2017-06-04T01:16:45.626Z,4.60
2017-06-04T01:19:13.905Z,5.97
2017-06-04T01:21:42.135Z,4.90
2017-06-04T01:24:17.097Z,6.27
2017-06-04T01:26:45.311Z,5.00
2017-06-04T01:29:13.523Z,5.50
2017-06-04T01:31:42.646Z,5.53
2017-06-04T01:34:10.918Z,4.40
2017-06-04T01:36:39.135Z,4.30
2017-06-04T01:39:07.348Z,4.47
2017-06-04T01:44:37.525Z,4.63
2017-06-04T01:47:19.042Z,5.03
2017-06-04T01:49:47.258Z,4.60
2017-06-04T01:52:16.989Z,4.00
2017-06-04T01:54:45.265Z,4.63
2017-06-04T01:57:13.482Z,5.20
2017-06-04T01:59:41.699Z,5.20
2017-06-04T02:02:09.939Z,5.60
2017-06-04T02:04:38.347Z,4.60
2017-06-04T02:07:07.399Z,4.27
2017-06-04T02:09:35.621Z,4.73
2017-06-04T02:12:03.911Z,5.33
2017-06-04T02:14:32.180Z,4.93
2017-06-04T02:17:00.407Z,5.40
2017-06-04T02:19:28.735Z,6.20
2017-06-04T02:21:56.990Z,6.20
2017-06-04T02:27:26.569Z,6.00
2017-06-04T02:30:16.325Z,5.17
2017-06-04T02:32:44.696Z,5.67
2017-06-04T02:35:13.005Z,5.47
2017-06-04T02:37:41.371Z,4.90
2017-06-04T02:42:42.569Z,5.10
2017-06-04T02:45:10.833Z,6.50
2017-06-04T02:47:39.040Z,4.87
2017-06-04T02:50:08.070Z,5.60
2017-06-04T02:55:37.363Z,7.83
2017-06-04T02:58:05.593Z,9.50
2017-06-04T03:00:33.812Z,7.40
2017-06-04T03:03:02.092Z,8.73
2017-06-04T03:05:30.347Z,8.80
2017-06-04T03:07:59.392Z,9.80
2017-06-04T03:10:29.565Z,8.80
2017-06-04T03:13:17.597Z,7.80
2017-06-04T03:15:46.635Z,8.43
2017-06-04T03:18:14.844Z,8.23
2017-06-04T03:20:43.060Z,7.73
2017-06-04T03:23:11.310Z,6.10
2017-06-04T03:25:40.330Z,6.50
2017-06-04T03:28:17.349Z,9.10
2017-06-04T03:30:45.575Z,8.57
2017-06-04T03:33:13.809Z,9.07
2017-06-04T03:38:43.227Z,6.00
2017-06-04T03:41:11.436Z,8.30
2017-06-04T03:43:40.409Z,8.57
2017-06-04T03:46:08.669Z,9.03
2017-06-04T03:48:36.899Z,7.30
2017-06-04T03:51:05.122Z,9.00
2017-06-04T03:53:33.450Z,7.33
2017-06-04T03:56:01.882Z,8.37
2017-06-04T03:58:30.103Z,9.27
2017-06-04T04:00:58.483Z,8.27
2017-06-04T04:03:26.756Z,6.90
2017-06-04T04:05:55.072Z,9.30
2017-06-04T04:08:23.338Z,7.73
2017-06-04T04:10:51.545Z,8.07
2017-06-04T04:13:20.534Z,9.83
2017-06-04T04:16:15.933Z,6.73
2017-06-04T04:18:44.140Z,9.50
2017-06-04T04:21:13.157Z,8.30
2017-06-04T04:23:41.979Z,10.53
2017-06-04T04:26:10.194Z,9.47
2017-06-04T04:28:39.214Z,10.90
2017-06-04T04:31:07.456Z,10.03
2017-06-04T04:33:36.479Z,10.77
2017-06-04T04:36:04.724Z,11.53
2017-06-04T04:38:33.758Z,11.80
2017-06-04T04:41:01.992Z,11.07
2017-06-04T04:43:30.979Z,11.50
2017-06-04T04:46:00.045Z,10.23
2017-06-04T04:48:28.381Z,9.80
2017-06-04T04:51:06.691Z,11.20
2017-06-04T04:53:34.997Z,8.97
2017-06-04T04:56:03.345Z,12.40
2017-06-04T05:01:33.118Z,11.40
2017-06-04T05:04:16.333Z,10.63
2017-06-04T05:09:45.566Z,12.97
2017-06-04T05:12:16.946Z,13.13
2017-06-04T05:14:45.990Z,11.90
2017-06-04T05:17:14.207Z,14.23
2017-06-04T05:19:43.217Z,14.20
2017-06-04T05:22:17.103Z,14.07
2017-06-04T05:24:46.090Z,13.80
2017-06-04T05:27:17.373Z,11.77
2017-06-04T05:29:45.602Z,13.23
2017-06-04T05:32:17.497Z,12.70
2017-06-04T05:34:45.773Z,11.63
2017-06-04T05:37:17.063Z,12.33
2017-06-04T05:39:45.298Z,13.60
2017-06-04T05:42:13.557Z,12.90
2017-06-04T05:44:42.588Z,11.80
2017-06-04T05:47:16.777Z,11.70
2017-06-04T05:49:45.068Z,10.70
2017-06-04T05:52:17.088Z,12.03
2017-06-04T05:57:45.523Z,7.60
2017-06-04T06:00:13.831Z,8.40
2017-06-04T06:02:42.373Z,13.80
2017-06-04T06:05:17.762Z,10.13
2017-06-04T06:07:46.024Z,11.80
2017-06-04T06:10:14.237Z,12.47
2017-06-04T06:12:42.449Z,12.40
2017-06-04T06:15:16.842Z,10.07
2017-06-04T06:21:06.050Z,10.07
2017-06-04T06:32:35.251Z,10.30
2017-06-04T06:35:16.361Z,9.30
2017-06-04T06:38:11.324Z,10.00
2017-06-04T06:41:06.097Z,11.87
2017-06-04T07:01:18.001Z,10.27
2017-06-04T07:04:16.025Z,10.40
2017-06-04T07:10:15.523Z,9.63
2017-06-04T07:21:45.204Z,10.67
2017-06-04T07:24:19.630Z,8.73
2017-06-04T07:27:15.461Z,10.70
2017-06-04T07:29:44.470Z,10.80
2017-06-04T07:32:34.494Z,11.13
2017-06-04T07:35:16.592Z,10.70
2017-06-04T07:37:44.856Z,9.83
2017-06-04T07:40:19.450Z,11.53
2017-06-04T07:43:16.231Z,10.47
2017-06-04T07:49:15.649Z,10.23
2017-06-04T07:58:16.369Z,10.00
2017-06-04T08:00:51.073Z,11.00
2017-06-04T08:06:17.145Z,10.60
2017-06-04T08:09:16.260Z,11.43
2017-06-04T08:14:52.037Z,11.90
2017-06-04T08:20:18.840Z,12.60
2017-06-04T08:23:15.380Z,10.80
2017-06-04T08:31:45.280Z,9.30
2017-06-04T08:34:14.324Z,9.13
2017-06-04T08:36:42.857Z,9.63
2017-06-04T08:39:11.155Z,9.43
2017-06-04T08:41:39.491Z,9.10
2017-06-04T08:44:08.609Z,9.13
2017-06-04T08:49:28.862Z,9.50
2017-06-04T08:51:57.102Z,9.30
2017-06-04T08:54:25.318Z,8.00
2017-06-04T08:56:53.614Z,10.30
2017-06-04T08:59:21.890Z,10.00
2017-06-04T09:02:16.744Z,10.00
2017-06-04T09:04:44.965Z,10.00
2017-06-04T09:07:13.391Z,9.17
2017-06-04T09:12:42.147Z,9.13
2017-06-04T09:15:10.372Z,9.30
2017-06-04T09:17:38.594Z,8.10
2017-06-04T09:20:06.857Z,9.73
2017-06-04T09:25:35.869Z,8.33
2017-06-04T09:28:04.197Z,8.53
2017-06-04T09:33:33.088Z,8.57
2017-06-04T09:36:02.138Z,7.37
2017-06-04T09:38:30.639Z,8.67
2017-06-04T09:40:58.853Z,9.13
2017-06-04T09:43:28.244Z,9.07
2017-06-04T09:45:57.258Z,8.90
2017-06-04T09:48:25.464Z,8.90
2017-06-04T09:50:53.751Z,7.80
2017-06-04T09:53:22.010Z,7.63
2017-06-04T09:55:50.229Z,8.37
2017-06-04T09:58:19.283Z,8.40
2017-06-04T10:00:47.497Z,7.80
2017-06-04T10:03:16.525Z,9.10
2017-06-04T10:05:44.992Z,8.57
2017-06-04T10:08:13.209Z,8.00
2017-06-04T10:10:41.418Z,6.70
2017-06-04T10:13:10.469Z,6.87
2017-06-04T10:15:38.701Z,6.80
2017-06-04T10:18:07.678Z,7.80
2017-06-04T10:20:36.799Z,6.83
2017-06-04T10:23:05.066Z,6.20
2017-06-04T10:25:33.358Z,7.20
2017-06-04T10:28:01.745Z,6.60
2017-06-04T10:30:29.995Z,7.20
2017-06-04T10:33:19.104Z,6.90
2017-06-04T10:35:47.318Z,6.60
2017-06-04T10:38:16.510Z,6.73
2017-06-04T10:40:45.564Z,6.93
2017-06-04T10:43:13.784Z,6.20
2017-06-04T10:45:42.796Z,6.60
2017-06-04T10:48:11.051Z,7.37
2017-06-04T10:50:40.050Z,7.47
2017-06-04T10:53:17.702Z,7.30
2017-06-04T10:56:16.469Z,7.23
2017-06-04T11:02:16.615Z,7.33
2017-06-04T11:08:17.250Z,8.07
2017-06-04T11:10:59.773Z,7.20
2017-06-04T11:13:28.254Z,7.97
2017-06-04T11:15:56.554Z,8.70
2017-06-04T11:21:25.366Z,7.93
2017-06-04T11:23:55.636Z,8.37
2017-06-04T11:29:24.355Z,8.63
2017-06-04T11:32:18.550Z,7.97
2017-06-04T11:37:55.266Z,7.97
2017-06-04T11:43:19.634Z,7.50
2017-06-04T11:48:54.805Z,7.70
2017-06-04T11:51:23.076Z,6.40
2017-06-04T11:54:07.841Z,7.87
2017-06-04T11:56:36.066Z,8.03
2017-06-04T11:59:04.376Z,8.57
2017-06-04T12:01:32.635Z,9.60
2017-06-04T12:04:01.640Z,7.57
2017-06-04T12:06:29.857Z,7.80
2017-06-04T12:08:58.124Z,6.97
2017-06-04T12:11:26.836Z,7.27
2017-06-04T12:13:55.159Z,7.03
2017-06-04T12:16:23.418Z,7.43
2017-06-04T12:18:52.404Z,7.40
2017-06-04T12:21:21.386Z,8.87
2017-06-04T12:23:50.442Z,7.43
2017-06-04T12:26:19.509Z,8.67
2017-06-04T12:28:47.736Z,7.43
2017-06-04T12:31:18.952Z,6.23
2017-06-04T12:33:47.344Z,7.47
2017-06-04T12:36:15.557Z,7.80
2017-06-04T12:38:44.594Z,8.43
2017-06-04T12:41:12.973Z,7.80
2017-06-04T12:43:41.220Z,8.00
2017-06-04T12:46:09.466Z,8.50
2017-06-04T12:48:37.687Z,8.80
2017-06-04T12:51:05.909Z,8.37
2017-06-04T12:53:34.200Z,8.70
2017-06-04T12:56:03.202Z,8.80
2017-06-04T12:58:32.186Z,8.80
2017-06-04T13:01:01.214Z,8.60
2017-06-04T13:03:29.516Z,8.70
2017-06-04T13:05:57.792Z,9.33
2017-06-04T13:08:26.040Z,7.93
2017-06-04T13:10:54.259Z,7.73
2017-06-04T13:13:22.479Z,7.80
2017-06-04T13:15:50.733Z,8.53
2017-06-04T13:18:19.716Z,7.80
2017-06-04T13:21:16.528Z,6.33
2017-06-04T13:23:44.845Z,6.90
2017-06-04T13:26:13.860Z,7.07
2017-06-04T13:28:42.376Z,6.50
2017-06-04T13:31:11.467Z,6.50
2017-06-04T13:33:39.714Z,6.40
2017-06-04T13:36:07.973Z,7.30
2017-06-04T13:38:36.207Z,5.90
2017-06-04T13:41:16.984Z,6.73
2017-06-04T13:43:45.204Z,5.80
2017-06-04T13:46:13.438Z,6.30
2017-06-04T13:58:03.121Z,6.60
2017-06-04T14:03:32.416Z,6.70
2017-06-04T14:09:16.595Z,6.30
2017-06-04T14:15:15.871Z,7.13
2017-06-04T14:20:43.905Z,7.20
2017-06-04T14:23:18.478Z,6.13
2017-06-04T14:26:17.279Z,4.53
2017-06-04T14:29:16.149Z,3.77
2017-06-04T14:31:58.215Z,3.70
2017-06-04T14:34:26.495Z,3.30
2017-06-04T14:37:08.520Z,3.60
2017-06-04T14:39:36.742Z,3.80
2017-06-04T14:45:17.920Z,3.33
2017-06-04T14:48:16.321Z,3.67
2017-06-04T14:57:16.438Z,5.50
2017-06-04T14:59:58.085Z,6.17
2017-06-04T15:05:26.163Z,5.13
2017-06-04T15:08:16.770Z,5.40
2017-06-04T15:11:15.099Z,4.93
2017-06-04T15:26:16.570Z,4.97
2017-06-04T15:31:54.171Z,5.00
2017-06-04T15:43:24.669Z,6.43
2017-06-04T15:46:17.341Z,5.63
2017-06-04T15:52:16.520Z,5.33
2017-06-04T15:55:04.805Z,4.87
2017-06-04T15:57:33.029Z,4.80
2017-06-04T16:03:17.300Z,5.50
2017-06-04T16:05:45.518Z,6.00
2017-06-04T16:11:17.874Z,5.33
2017-06-04T16:14:16.270Z,6.27
2017-06-04T16:23:17.333Z,6.73
2017-06-04T16:29:16.169Z,6.50
2017-06-04T16:34:46.143Z,6.23
2017-06-04T16:37:17.877Z,6.67
2017-06-04T16:40:16.291Z,5.77
2017-06-04T16:46:01.920Z,7.37
2017-06-04T16:48:31.016Z,7.20
2017-06-04T16:50:59.240Z,5.93
2017-06-04T16:53:27.459Z,7.47
2017-06-04T16:56:17.025Z,7.50
2017-06-04T16:58:45.294Z,7.73
2017-06-04T17:01:20.125Z,6.70
2017-06-04T17:04:20.536Z,7.07
2017-06-04T17:06:48.766Z,7.80
2017-06-04T17:09:18.421Z,6.67
2017-06-04T17:11:46.661Z,8.00
2017-06-04T17:14:18.591Z,8.00
2017-06-04T17:16:46.812Z,7.47
2017-06-04T17:19:18.002Z,6.97
2017-06-04T17:21:46.222Z,8.20
2017-06-04T17:24:17.482Z,8.60
2017-06-04T17:26:45.750Z,7.50
2017-06-04T17:29:14.715Z,12.43
2017-06-04T17:31:43.704Z,10.73
2017-06-04T17:34:18.398Z,7.37
2017-06-04T17:36:48.122Z,6.93
2017-06-04T17:41:54.442Z,7.70
2017-06-04T17:44:22.719Z,9.50
2017-06-04T17:49:29.508Z,9.33
2017-06-04T17:52:17.609Z,9.43
2017-06-04T17:54:45.863Z,9.00
2017-06-04T17:57:14.248Z,5.27
2017-06-04T18:02:42.528Z,6.20
2017-06-04T18:05:10.778Z,6.77
2017-06-04T18:07:39.597Z,6.73
2017-06-04T18:10:08.197Z,6.20
2017-06-04T18:12:36.449Z,7.73
2017-06-04T18:15:04.674Z,9.00
2017-06-04T18:17:33.701Z,5.00
2017-06-04T18:20:17.131Z,4.70
2017-06-04T18:25:46.839Z,7.20
2017-06-04T18:28:19.081Z,4.90
2017-06-04T18:30:48.575Z,4.73
2017-06-04T18:33:18.234Z,4.50
2017-06-04T18:35:46.446Z,4.60
2017-06-04T18:38:17.805Z,4.90
2017-06-04T18:41:16.453Z,5.00
2017-06-04T18:43:44.709Z,5.43
2017-06-04T18:46:19.291Z,6.07
2017-06-04T18:49:16.226Z,5.90
2017-06-04T18:51:44.470Z,6.70
2017-06-04T18:54:18.889Z,7.10
2017-06-04T18:57:17.395Z,6.17
2017-06-04T18:59:45.843Z,6.23
2017-06-04T19:02:19.903Z,5.97
2017-06-04T19:05:16.739Z,6.00
2017-06-04T19:07:45.224Z,6.70
2017-06-04T19:10:19.486Z,6.40
2017-06-04T19:13:16.079Z,6.53
2017-06-04T19:15:44.325Z,7.60
2017-06-04T19:18:18.268Z,6.97
2017-06-04T19:21:17.084Z,7.37
2017-06-04T19:23:46.068Z,8.17
2017-06-04T19:26:18.208Z,8.00
2017-06-04T19:28:46.445Z,6.20
2017-06-04T19:31:18.919Z,7.50
2017-06-04T19:33:47.147Z,7.73
2017-06-04T19:36:15.367Z,10.20
2017-06-04T19:38:43.676Z,11.50
2017-06-04T19:41:12.944Z,11.23
2017-06-04T19:43:41.168Z,12.00
2017-06-04T19:46:17.905Z,13.30
2017-06-04T19:48:46.180Z,16.13
2017-06-04T19:51:17.711Z,14.77
2017-06-04T19:53:45.975Z,9.30
2017-06-04T19:56:15.014Z,15.07
2017-06-04T20:01:43.816Z,14.03
2017-06-04T20:04:12.047Z,13.50
2017-06-04T20:06:41.041Z,14.60
2017-06-04T20:09:10.072Z,13.30
2017-06-04T20:11:38.310Z,13.40
2017-06-04T20:14:07.350Z,13.73
2017-06-04T20:16:35.571Z,14.90
2017-06-04T20:19:04.598Z,13.23
2017-06-04T20:21:32.832Z,12.50
2017-06-04T20:24:01.878Z,13.50
2017-06-04T20:26:30.112Z,12.63
2017-06-04T20:28:59.111Z,12.57
2017-06-04T20:31:28.149Z,12.60
2017-06-04T20:34:17.279Z,14.73
2017-06-04T20:36:45.563Z,13.47
2017-06-04T20:39:13.801Z,13.67
2017-06-04T20:41:42.794Z,14.07
2017-06-04T20:44:11.065Z,13.97
2017-06-04T20:46:39.295Z,14.43
2017-06-04T20:49:17.917Z,15.20
2017-06-04T20:51:46.165Z,13.83
2017-06-04T20:54:14.428Z,13.93
2017-06-04T20:56:43.422Z,14.73
2017-06-04T20:59:12.429Z,13.43
2017-06-04T21:04:41.973Z,11.90
2017-06-04T21:07:10.201Z,13.73
2017-06-04T21:09:39.244Z,11.63
2017-06-04T21:12:07.485Z,14.40
2017-06-04T21:14:35.839Z,12.70
2017-06-04T21:17:04.062Z,13.60
2017-06-04T21:19:32.281Z,11.77
2017-06-04T21:22:00.552Z,14.10
2017-06-04T21:24:28.814Z,15.27
2017-06-04T21:26:57.193Z,14.90
2017-06-04T21:32:26.885Z,14.90
2017-06-04T21:34:55.119Z,16.83
2017-06-04T21:37:23.417Z,16.30
2017-06-04T21:39:51.718Z,11.80
2017-06-04T21:42:19.950Z,17.70
2017-06-04T21:45:16.330Z,14.80
2017-06-04T21:47:44.973Z,16.93
2017-06-04T21:50:14.231Z,17.03
2017-06-04T21:52:45.990Z,14.43
2017-06-04T21:55:17.700Z,16.37
2017-06-04T21:57:45.932Z,15.77
2017-06-04T22:00:19.988Z,18.20
2017-06-04T22:02:48.216Z,16.70
2017-06-04T22:05:17.717Z,15.63
2017-06-04T22:07:45.986Z,18.23
2017-06-04T22:10:14.442Z,16.87
2017-06-04T22:15:16.119Z,18.43
2017-06-04T22:17:44.389Z,18.37
2017-06-04T22:20:19.005Z,17.40
2017-06-04T22:22:47.235Z,20.60
2017-06-04T22:25:18.689Z,19.87
2017-06-04T22:27:46.919Z,19.53
2017-06-04T22:30:15.142Z,19.60
2017-06-04T22:35:43.994Z,18.30
2017-06-04T22:38:12.266Z,20.30
2017-06-04T22:43:41.588Z,19.70
2017-06-04T22:46:17.929Z,19.50
2017-06-04T22:48:46.189Z,12.63
2017-06-04T22:51:18.895Z,20.87
2017-06-04T22:53:47.168Z,19.57
2017-06-04T22:56:15.455Z,17.20
2017-06-04T22:58:43.691Z,11.80
2017-06-04T23:01:18.554Z,8.07
2017-06-04T23:03:46.779Z,12.57
2017-06-04T23:06:15.003Z,20.60
2017-06-04T23:08:43.271Z,5.13
2017-06-04T23:11:11.494Z,6.13
2017-06-04T23:13:39.722Z,6.23
2017-06-04T23:16:07.982Z,29.00
2017-06-04T23:18:36.981Z,5.20
2017-06-04T23:21:18.922Z,21.07
2017-06-04T23:23:47.146Z,20.10
2017-06-04T23:26:16.240Z,5.40
2017-06-04T23:28:45.266Z,27.00
2017-06-04T23:31:13.528Z,15.67
2017-06-04T23:33:42.325Z,29.17
2017-06-04T23:36:10.594Z,15.00
2017-06-04T23:38:38.900Z,24.90
2017-06-04T23:41:19.685Z,24.83
2017-06-04T23:43:48.018Z,8.57
2017-06-04T23:46:17.765Z,7.73
2017-06-04T23:49:16.393Z,15.40
2017-06-04T23:51:45.524Z,18.00
2017-06-04T23:54:13.792Z,15.80
